Time;durP1;ratioP1;P1;durP2;ratioP2;P2;SDS_P1;SDS_P2;PMS_P1;PMS_P2;Temp;Humidity;BMP_temperature;BMP_pressure;BME280_temperature;BME280_humidity;BME280_pressure;Samples;Min_cycle;Max_cycle;Signal;HPM_P1;HPM_P2
2022/01/18 00:01:46;;;;;;;56.67;20.83;;;7.00;99.90;;;;;;5037669;28;20025;-82
2022/01/18 00:04:12;;;;;;;50.75;20.75;;;7.90;99.90;;;;;;5055931;28;20029;-82
2022/01/18 00:06:40;;;;;;;54.25;21.48;;;5.50;99.90;;;;;;5059245;28;20750;-82
2022/01/18 00:09:06;;;;;;;51.67;20.25;;;5.50;99.90;;;;;;5060577;28;20032;-82
2022/01/18 00:11:40;;;;;;;50.40;20.95;;;7.70;99.90;;;;;;5038676;28;20542;-80
2022/01/18 00:14:13;;;;;;;51.65;19.95;;;;;;;;;;5058872;28;20120;-81
2022/01/18 00:17:00;;;;;;;53.58;21.10;;;5.50;99.90;;;;;;5044964;28;20044;-80
2022/01/18 00:19:25;;;;;;;49.05;19.88;;;5.70;99.90;;;;;;5055029;28;20029;-82
2022/01/18 00:24:17;;;;;;;50.05;20.05;;;5.50;99.90;;;;;;5057324;28;20025;-80
2022/01/18 00:26:43;;;;;;;55.67;22.50;;;;;;;;;;5040777;28;20048;-79
2022/01/18 00:29:12;;;;;;;48.75;20.05;;;5.60;99.90;;;;;;5044360;28;20021;-81
2022/01/18 00:34:29;;;;;;;49.70;20.42;;;6.00;99.90;;;;;;5066778;28;20029;-80
2022/01/18 00:37:00;;;;;;;55.42;20.23;;;5.60;99.90;;;;;;5045907;28;20017;-80
2022/01/18 00:39:26;;;;;;;56.70;22.55;;;8.30;99.90;;;;;;5052152;28;20066;-82
2022/01/18 00:41:52;;;;;;;49.33;21.15;;;5.60;99.90;;;;;;5046781;28;20021;-80
2022/01/18 00:44:18;;;;;;;57.33;21.60;;;5.60;99.90;;;;;;5042343;28;20024;-84
2022/01/18 00:46:44;;;;;;;60.38;22.83;;;;;;;;;;5048341;28;20033;-81
2022/01/18 00:49:12;;;;;;;47.13;20.20;;;5.60;99.90;;;;;;5041033;28;20211;-82
2022/01/18 00:51:40;;;;;;;55.25;21.00;;;6.60;99.90;;;;;;5044949;28;20032;-81
2022/01/18 00:54:09;;;;;;;55.90;20.88;;;5.70;99.90;;;;;;5059777;28;20408;-82
2022/01/18 00:56:39;;;;;;;48.88;20.75;;;6.10;99.90;;;;;;5044611;28;20068;-80
2022/01/18 00:59:06;;;;;;;47.83;19.92;;;8.00;99.90;;;;;;5043806;28;20033;-80
2022/01/18 01:01:34;;;;;;;49.60;20.55;;;5.80;99.90;;;;;;5059448;28;20528;-80
2022/01/18 01:04:02;;;;;;;54.72;22.00;;;6.40;99.90;;;;;;5048526;28;20021;-79
2022/01/18 01:06:30;;;;;;;51.30;21.38;;;5.00;99.90;;;;;;5059177;28;20028;-82
2022/01/18 01:08:56;;;;;;;53.40;21.38;;;5.60;99.90;;;;;;5063343;28;20025;-80
2022/01/18 01:11:22;;;;;;;50.95;20.55;;;5.50;99.90;;;;;;5059716;28;20047;-81
2022/01/18 01:13:51;;;;;;;54.13;22.05;;;8.20;99.90;;;;;;5055026;28;20029;-80
2022/01/18 01:16:46;;;;;;;55.67;21.83;;;5.90;99.90;;;;;;5055743;28;20478;-82
2022/01/18 01:43:23;;;;;;;54.92;22.05;;;5.60;99.90;;;;;;5057814;28;20071;-80
2022/01/18 01:45:50;;;;;;;55.97;22.20;;;;;;;;;;5043020;28;20515;-83
2022/01/18 01:48:17;;;;;;;54.08;21.90;;;5.60;99.90;;;;;;5040774;28;20032;-79
2022/01/18 01:50:50;;;;;;;56.95;21.83;;;4.80;99.90;;;;;;5058720;28;20033;-84
2022/01/18 01:53:18;;;;;;;63.15;23.85;;;7.30;99.90;;;;;;5043411;28;20076;-78
2022/01/18 01:55:45;;;;;;;57.50;22.23;;;8.50;99.90;;;;;;5055693;28;20025;-80
2022/01/18 01:58:11;;;;;;;63.60;23.00;;;5.70;99.90;;;;;;5060475;28;20014;-80
2022/01/18 02:00:49;;;;;;;60.95;23.98;;;6.80;99.90;;;;;;5044128;28;20056;-83
2022/01/18 02:03:15;;;;;;;61.60;23.02;;;5.60;99.90;;;;;;5041105;28;20055;-84
2022/01/18 02:05:41;;;;;;;59.08;22.30;;;7.50;99.90;;;;;;5040200;28;20029;-83
2022/01/18 02:08:07;;;;;;;57.25;22.63;;;8.70;99.90;;;;;;5044950;28;20163;-80
2022/01/18 02:10:37;;;;;;;67.68;24.92;;;5.60;99.90;;;;;;5055719;28;20401;-81
2022/01/18 02:13:05;;;;;;;59.53;23.67;;;5.60;99.90;;;;;;5039782;28;20021;-80
2022/01/18 02:15:31;;;;;;;62.90;23.67;;;7.10;99.90;;;;;;5051835;28;20032;-81
2022/01/18 02:23:29;;;;;;;64.97;22.58;;;6.00;99.90;;;;;;5059308;28;20048;-79
2022/01/18 02:25:56;;;;;;;57.03;21.10;;;5.60;99.90;;;;;;5055447;28;20570;-80
2022/01/18 02:28:24;;;;;;;50.75;20.83;;;7.00;99.90;;;;;;5059000;28;20035;-82
2022/01/18 02:30:51;;;;;;;64.80;23.98;;;7.10;99.90;;;;;;5035931;28;20028;-79
2022/01/18 02:33:17;;;;;;;54.35;21.63;;;5.50;99.90;;;;;;5036911;28;20116;-79
2022/01/18 02:35:44;;;;;;;54.53;22.85;;;7.70;99.90;;;;;;5034307;28;20025;-80
2022/01/18 02:38:10;;;;;;;63.53;23.55;;;5.60;99.90;;;;;;5037999;28;20500;-81
2022/01/18 02:40:36;;;;;;;64.90;22.23;;;;;;;;;;5052694;28;20029;-79
2022/01/18 02:43:46;;;;;;;60.13;24.00;;;5.60;99.90;;;;;;5039190;28;20025;-83
2022/01/18 02:45:55;;;;;;;62.05;23.70;;;5.60;99.90;;;;;;5051921;28;20029;-80
2022/01/18 02:48:22;;;;;;;55.22;22.42;;;5.50;99.90;;;;;;5038364;28;20033;-80
2022/01/18 02:50:48;;;;;;;60.30;23.42;;;5.60;99.90;;;;;;5036455;28;20040;-84
2022/01/18 02:53:18;;;;;;;61.10;21.90;;;7.50;99.90;;;;;;5031776;28;20064;-82
2022/01/18 02:55:52;;;;;;;50.50;21.65;;;6.40;99.90;;;;;;5051057;28;20017;-84
2022/01/18 02:58:27;;;;;;;49.67;20.40;;;7.90;99.90;;;;;;5036039;28;20029;-81
2022/01/18 03:03:32;;;;;;;47.00;18.98;;;5.60;99.90;;;;;;5060017;28;20021;-78
2022/01/18 03:06:00;;;;;;;44.42;18.10;;;5.80;99.90;;;;;;5059159;28;20163;-80
2022/01/18 03:08:26;;;;;;;43.30;19.02;;;7.80;99.90;;;;;;5040138;28;20029;-82
2022/01/18 03:10:52;;;;;;;49.20;21.42;;;5.60;99.90;;;;;;5061087;28;20086;-82
2022/01/18 03:13:18;;;;;;;42.10;17.38;;;5.60;99.90;;;;;;5037619;28;20045;-79
2022/01/18 03:15:45;;;;;;;46.53;18.50;;;7.70;99.90;;;;;;5034754;28;20056;-80
2022/01/18 03:18:11;;;;;;;54.28;19.70;;;;;;;;;;5036923;28;20104;-80
2022/01/18 03:20:38;;;;;;;40.50;18.00;;;5.70;99.90;;;;;;5037676;28;20219;-79
2022/01/18 03:23:13;;;;;;;41.85;18.45;;;5.70;99.90;;;;;;5037333;28;20140;-80
2022/01/18 03:29:15;;;;;;;47.13;19.00;;;5.60;99.90;;;;;;5032110;28;20057;-88
2022/01/18 03:32:21;;;;;;;45.67;17.33;;;5.60;99.90;;;;;;5034181;28;20021;-87
2022/01/18 03:35:39;;;;;;;46.92;17.83;;;5.50;99.90;;;;;;5013871;28;20034;-85
2022/01/18 03:38:22;;;;;;;43.05;17.38;;;5.50;99.90;;;;;;5013733;28;20044;-87
2022/01/18 03:41:35;;;;;;;46.35;18.63;;;5.50;99.90;;;;;;5021684;28;20038;-88
2022/01/18 03:44:18;;;;;;;46.42;18.63;;;5.50;99.90;;;;;;5018324;28;20045;-84
2022/01/18 03:51:16;;;;;;;48.40;19.08;;;5.40;99.90;;;;;;4995957;28;20081;-89
2022/01/18 03:54:05;;;;;;;42.60;17.50;;;5.40;99.90;;;;;;5013727;28;20064;-84
2022/01/18 03:56:53;;;;;;;44.08;17.90;;;5.40;99.90;;;;;;5016770;28;20034;-85
2022/01/18 04:00:01;;;;;;;42.42;17.08;;;5.40;99.90;;;;;;5010251;28;20433;-85
2022/01/18 04:03:03;;;;;;;47.15;18.27;;;5.60;99.90;;;;;;5013948;28;20058;-88
2022/01/18 04:06:01;;;;;;;43.13;17.55;;;5.30;99.90;;;;;;5017488;28;20105;-87
2022/01/18 04:08:44;;;;;;;42.40;18.27;;;5.30;99.90;;;;;;5016907;28;20047;-87
2022/01/18 04:11:31;;;;;;;46.67;18.38;;;5.30;99.90;;;;;;5013572;28;20065;-84
2022/01/18 04:14:06;;;;;;;48.67;18.40;;;5.30;99.90;;;;;;5013304;28;20557;-88
2022/01/18 04:16:41;;;;;;;44.35;17.70;;;;;;;;;;5015994;28;20026;-87
2022/01/18 04:27:19;;;;;;;52.70;20.13;;;7.00;99.90;;;;;;5019238;28;20080;-86
2022/01/18 04:29:45;;;;;;;52.85;18.85;;;5.30;99.90;;;;;;5018247;28;20026;-87
2022/01/18 04:32:10;;;;;;;54.53;19.60;;;5.30;99.90;;;;;;5015343;28;20359;-86
2022/01/18 04:34:38;;;;;;;50.72;18.25;;;8.80;99.90;;;;;;5018131;28;20038;-87
2022/01/18 04:37:04;;;;;;;50.67;18.75;;;6.50;99.90;;;;;;5018835;28;20034;-89
2022/01/18 04:39:36;;;;;;;50.08;19.05;;;5.20;99.90;;;;;;5019871;28;20489;-89
2022/01/18 04:42:02;;;;;;;60.10;20.77;;;7.40;99.90;;;;;;5021526;28;20030;-85
2022/01/18 04:49:59;;;;;;;60.30;21.25;;;;;;;;;;5016814;28;20036;-87
2022/01/18 04:52:25;;;;;;;49.63;20.40;;;;;;;;;;5001298;28;20117;-87
2022/01/18 04:54:58;;;;;;;52.60;19.30;;;5.30;99.90;;;;;;5029265;28;20080;-87
2022/01/18 04:59:50;;;;;;;46.70;19.90;;;5.30;99.90;;;;;;5018599;28;20113;-85
2022/01/18 05:02:15;;;;;;;53.25;20.17;;;7.20;99.90;;;;;;5023586;28;20486;-86
2022/01/18 05:04:43;;;;;;;54.33;20.05;;;7.10;99.90;;;;;;5020577;28;20030;-87
2022/01/18 05:07:11;;;;;;;47.15;18.50;;;5.20;99.90;;;;;;5022369;28;20030;-86
2022/01/18 05:09:37;;;;;;;46.92;19.05;;;6.00;99.90;;;;;;5025812;28;20049;-86
2022/01/18 05:12:13;;;;;;;47.05;19.38;;;5.10;99.90;;;;;;5014703;28;20019;-87
2022/01/18 05:14:39;;;;;;;52.30;20.27;;;5.40;99.90;;;;;;5016516;28;20041;-87
2022/01/18 05:17:21;;;;;;;57.65;19.85;;;9.30;99.90;;;;;;5025230;28;20117;-87
2022/01/18 05:20:23;;;;;;;49.80;20.23;;;7.30;99.90;;;;;;5017742;28;20108;-87
2022/01/18 05:25:16;;;;;;;56.10;20.73;;;7.40;99.90;;;;;;5021417;28;20056;-85
2022/01/18 05:27:42;;;;;;;56.08;20.85;;;;;;;;;;5016844;28;20110;-86
2022/01/18 05:30:08;;;;;;;57.17;21.02;;;5.30;99.90;;;;;;5016913;28;20026;-86
2022/01/18 05:32:34;;;;;;;54.67;20.05;;;5.30;99.90;;;;;;5016191;28;20053;-84
2022/01/18 05:35:00;;;;;;;53.88;21.00;;;5.30;99.90;;;;;;5018697;28;20038;-86
2022/01/18 05:37:25;;;;;;;57.95;19.98;;;5.20;99.90;;;;;;5017043;28;20249;-87
2022/01/18 05:39:51;;;;;;;55.72;20.88;;;;;;;;;;5014132;28;20030;-84
2022/01/18 05:42:17;;;;;;;49.28;20.83;;;5.40;99.90;;;;;;5013932;28;20034;-87
2022/01/18 05:44:42;;;;;;;55.92;19.90;;;5.70;99.90;;;;;;5008965;28;20517;-88
2022/01/18 05:47:08;;;;;;;54.33;21.85;;;5.30;99.90;;;;;;5020672;28;20033;-88
2022/01/18 05:49:34;;;;;;;57.17;20.35;;;;;;;;;;5000472;28;20041;-85
2022/01/18 05:52:00;;;;;;;49.53;19.40;;;5.40;99.90;;;;;;5018405;28;20490;-86
2022/01/18 05:54:25;;;;;;;54.67;21.77;;;5.30;99.90;;;;;;5027213;28;20029;-86
2022/01/18 05:56:51;;;;;;;50.72;20.25;;;6.20;99.90;;;;;;5024883;28;20034;-86
2022/01/18 05:59:23;;;;;;;47.45;18.73;;;5.90;99.90;;;;;;5011613;28;20025;-86
2022/01/18 06:01:50;;;;;;;49.47;19.17;;;5.40;99.90;;;;;;5016097;28;20029;-87
2022/01/18 06:06:50;;;;;;;45.10;17.08;;;7.10;99.90;;;;;;5019696;28;20065;-87
2022/01/18 06:07:05;;;;;;;44.78;18.75;;;;;;;;;;5017292;28;20083;-86
2022/01/18 06:09:31;;;;;;;46.17;18.80;;;5.30;99.90;;;;;;5016742;28;20030;-86
2022/01/18 06:11:57;;;;;;;44.83;18.90;;;;;;;;;;5020694;28;20030;-87
2022/01/18 06:14:22;;;;;;;47.50;18.92;;;5.40;99.90;;;;;;5017403;28;20034;-85
2022/01/18 06:16:48;;;;;;;51.25;18.77;;;7.50;99.90;;;;;;5023539;28;20044;-84
2022/01/18 06:19:14;;;;;;;50.13;19.50;;;5.90;99.90;;;;;;5017708;28;20035;-86
2022/01/18 06:21:40;;;;;;;44.15;16.73;;;;;;;;;;5020393;28;20466;-83
2022/01/18 06:24:08;;;;;;;44.90;18.38;;;5.40;99.90;;;;;;5020466;28;20120;-87
2022/01/18 06:26:34;;;;;;;47.03;17.55;;;5.40;99.90;;;;;;5018700;28;20022;-86
2022/01/18 06:29:00;;;;;;;50.60;19.13;;;;;;;;;;5019456;28;20026;-87
2022/01/18 06:31:26;;;;;;;51.53;19.48;;;5.30;99.90;;;;;;5019509;28;20490;-84
2022/01/18 06:33:52;;;;;;;48.47;18.52;;;;;;;;;;5017727;28;20039;-86
2022/01/18 06:36:18;;;;;;;41.25;18.58;;;5.30;99.90;;;;;;5016702;28;20046;-87
2022/01/18 06:38:44;;;;;;;47.60;18.13;;;;;;;;;;5017327;28;20085;-85
2022/01/18 06:41:10;;;;;;;39.08;15.35;;;5.30;99.90;;;;;;5020025;28;20057;-86
2022/01/18 06:43:36;;;;;;;36.17;16.33;;;5.30;99.90;;;;;;5014015;28;20026;-85
2022/01/18 06:46:01;;;;;;;38.25;16.45;;;7.10;99.90;;;;;;5020510;28;20065;-87
2022/01/18 06:48:27;;;;;;;39.50;15.70;;;5.70;99.90;;;;;;5016732;28;20036;-86
2022/01/18 06:50:53;;;;;;;36.70;16.23;;;;;;;;;;5021366;28;20025;-89
2022/01/18 06:53:19;;;;;;;40.90;17.45;;;;;;;;;;5014764;28;20030;-88
2022/01/18 06:55:51;;;;;;;39.03;17.13;;;5.20;99.90;;;;;;5021155;28;20036;-88
2022/01/18 06:58:16;;;;;;;38.53;15.88;;;9.30;99.90;;;;;;5024101;28;20502;-88
2022/01/18 07:00:42;;;;;;;44.90;17.80;;;5.20;99.90;;;;;;5027989;28;20033;-89
2022/01/18 07:03:08;;;;;;;44.28;17.25;;;7.10;99.90;;;;;;5026110;28;20413;-86
2022/01/18 07:05:34;;;;;;;42.78;16.58;;;;;;;;;;5017574;28;20023;-86
2022/01/18 07:08:00;;;;;;;44.35;17.23;;;;;;;;;;5024092;28;20052;-88
2022/01/18 07:10:25;;;;;;;42.97;17.73;;;5.40;99.90;;;;;;5036899;28;20014;-86
2022/01/18 07:12:55;;;;;;;47.90;18.30;;;5.40;99.90;;;;;;5019883;28;20062;-86
2022/01/18 07:15:21;;;;;;;40.13;16.73;;;5.30;99.90;;;;;;5019657;28;20027;-86
2022/01/18 07:17:47;;;;;;;38.72;16.13;;;5.30;99.90;;;;;;5015579;28;21333;-86
2022/01/18 07:20:13;;;;;;;37.08;15.52;;;4.70;99.90;;;;;;5018645;28;20041;-85
2022/01/18 07:22:42;;;;;;;39.20;17.52;;;5.50;99.90;;;;;;5016531;28;20113;-88
2022/01/18 07:25:11;;;;;;;40.70;17.55;;;5.50;99.90;;;;;;5020488;28;20025;-86
2022/01/18 07:27:37;;;;;;;80.93;32.08;;;7.00;99.90;;;;;;5016895;28;20096;-86
2022/01/18 07:30:03;;;;;;;34.63;15.25;;;5.50;99.90;;;;;;5017578;28;20034;-84
2022/01/18 07:32:29;;;;;;;39.08;17.05;;;5.50;99.90;;;;;;5017508;28;20109;-85
2022/01/18 07:34:57;;;;;;;37.78;16.05;;;;;;;;;;5018065;28;20577;-86
2022/01/18 07:37:23;;;;;;;46.45;18.20;;;5.50;99.90;;;;;;5017964;28;20124;-86
2022/01/18 07:39:51;;;;;;;37.78;16.38;;;5.50;99.90;;;;;;5018617;28;20034;-88
2022/01/18 07:42:19;;;;;;;40.38;16.85;;;5.50;99.90;;;;;;5018266;28;20040;-87
2022/01/18 07:44:45;;;;;;;42.10;17.60;;;;;;;;;;5003269;28;20375;-86
2022/01/18 07:47:10;;;;;;;34.95;16.25;;;5.50;99.90;;;;;;5005842;28;20037;-86
2022/01/18 07:49:36;;;;;;;38.20;15.70;;;5.50;99.90;;;;;;5018509;28;20033;-87
2022/01/18 07:52:03;;;;;;;40.28;17.05;;;6.10;99.90;;;;;;5013726;28;20060;-86
2022/01/18 07:54:28;;;;;;;39.95;17.85;;;5.70;99.90;;;;;;5015216;28;20030;-86
2022/01/18 07:56:54;;;;;;;33.35;15.98;;;;;;;;;;5018454;28;20145;-89
2022/01/18 07:59:20;;;;;;;30.55;14.13;;;5.60;99.90;;;;;;5013420;28;20093;-86
2022/01/18 08:01:46;;;;;;;32.33;13.85;;;7.60;99.90;;;;;;5018212;28;20028;-85
2022/01/18 08:04:12;;;;;;;30.10;13.38;;;8.20;99.90;;;;;;5012753;28;20046;-87
2022/01/18 08:06:38;;;;;;;30.42;13.52;;;;;;;;;;5014976;28;20043;-84
2022/01/18 08:09:04;;;;;;;32.38;14.63;;;5.70;99.90;;;;;;4999860;28;20419;-84
2022/01/18 08:11:30;;;;;;;28.65;13.38;;;7.70;99.90;;;;;;5017640;28;20044;-85
2022/01/18 08:13:57;;;;;;;26.52;12.75;;;7.40;99.90;;;;;;5017354;28;20408;-85
2022/01/18 08:18:57;;;;;;;27.10;13.50;;;5.80;99.90;;;;;;5018385;28;20033;-85
2022/01/18 08:21:23;;;;;;;34.28;13.93;;;8.50;99.90;;;;;;5017105;28;20018;-84
2022/01/18 08:23:49;;;;;;;26.67;12.35;;;5.90;99.90;;;;;;4998076;28;20034;-86
2022/01/18 08:26:16;;;;;;;27.00;12.75;;;7.90;99.90;;;;;;4998650;28;20083;-81
2022/01/18 08:28:41;;;;;;;28.73;12.55;;;8.30;99.90;;;;;;5002149;28;20057;-85
2022/01/18 08:31:07;;;;;;;24.95;12.05;;;7.00;99.90;;;;;;5022310;28;20030;-85
2022/01/18 08:33:33;;;;;;;22.13;10.73;;;;;;;;;;5021768;28;20045;-85
2022/01/18 08:36:00;;;;;;;24.15;11.25;;;6.20;99.90;;;;;;5022579;28;20136;-82
2022/01/18 08:38:30;;;;;;;32.67;13.15;;;9.60;99.90;;;;;;5018479;28;20056;-82
2022/01/18 08:40:58;;;;;;;28.08;11.93;;;6.20;99.90;;;;;;5012272;28;20026;-88
2022/01/18 08:43:24;;;;;;;29.52;12.65;;;6.10;99.90;;;;;;5014651;28;20092;-86
2022/01/18 08:45:50;;;;;;;27.05;13.25;;;6.20;99.90;;;;;;5021527;28;20018;-87
2022/01/18 08:48:16;;;;;;;23.17;10.98;;;6.20;99.90;;;;;;5021697;28;20320;-86
2022/01/18 08:50:41;;;;;;;22.70;11.00;;;6.20;99.90;;;;;;5021795;28;20092;-87
2022/01/18 08:53:07;;;;;;;23.48;11.32;;;;;;;;;;5023315;28;20022;-86
2022/01/18 08:55:34;;;;;;;23.10;11.30;;;6.30;99.90;;;;;;5022557;28;20026;-87
2022/01/18 08:58:02;;;;;;;26.20;11.48;;;6.30;99.90;;;;;;5021168;28;20022;-86
2022/01/18 09:00:28;;;;;;;24.35;11.00;;;9.80;99.90;;;;;;5020732;28;20056;-86
2022/01/18 09:02:54;;;;;;;28.63;11.88;;;;;;;;;;5022430;28;20022;-89
2022/01/18 09:05:22;;;;;;;26.73;12.35;;;6.30;99.90;;;;;;5020278;28;20089;-85
2022/01/18 09:07:49;;;;;;;27.33;11.95;;;;;;;;;;5036092;28;20369;-87
2022/01/18 09:10:15;;;;;;;25.67;11.90;;;6.30;99.90;;;;;;5025373;28;20094;-87
2022/01/18 09:12:41;;;;;;;24.83;11.52;;;8.40;99.90;;;;;;5025151;28;20030;-86
2022/01/18 09:15:10;;;;;;;26.40;11.35;;;6.40;99.90;;;;;;5023111;28;20025;-86
2022/01/18 09:17:37;;;;;;;26.20;11.32;;;6.40;99.90;;;;;;5022409;28;20053;-87
2022/01/18 09:20:06;;;;;;;27.50;11.52;;;6.10;99.90;;;;;;5022234;28;20030;-87
2022/01/18 09:22:35;;;;;;;22.63;10.00;;;6.50;99.90;;;;;;5023031;28;20091;-87
2022/01/18 09:25:05;;;;;;;20.63;10.50;;;7.20;99.90;;;;;;5022041;28;20030;-88
2022/01/18 09:27:31;;;;;;;22.77;11.15;;;;;;;;;;5023771;28;20041;-90
2022/01/18 09:29:57;;;;;;;19.98;10.75;;;6.70;99.90;;;;;;5022906;28;20026;-88
2022/01/18 09:32:23;;;;;;;26.20;11.65;;;6.70;99.90;;;;;;5023940;28;20028;-88
2022/01/18 09:34:49;;;;;;;26.67;11.68;;;7.40;99.90;;;;;;5023207;28;20085;-84
2022/01/18 09:37:15;;;;;;;21.05;10.70;;;8.50;99.90;;;;;;5021494;28;20037;-87
2022/01/18 09:39:41;;;;;;;27.98;9.75;;;;;;;;;;5022253;28;20053;-84
2022/01/18 09:42:09;;;;;;;26.75;9.73;;;6.90;99.90;;;;;;5022172;28;20433;-87
2022/01/18 09:44:34;;;;;;;19.38;10.13;;;6.90;99.90;;;;;;5022074;28;20022;-87
2022/01/18 09:47:00;;;;;;;22.50;10.52;;;;;;;;;;5022189;28;20072;-88
2022/01/18 09:49:26;;;;;;;19.52;9.38;;;7.00;99.90;;;;;;5022319;28;20026;-86
2022/01/18 09:51:52;;;;;;;24.45;10.20;;;;;;;;;;5022800;28;20589;-86
2022/01/18 09:54:18;;;;;;;16.75;7.65;;;7.10;99.90;;;;;;5003645;28;20030;-85
2022/01/18 09:56:44;;;;;;;23.23;9.23;;;9.60;99.90;;;;;;5013167;28;20026;-88
2022/01/18 09:59:09;;;;;;;17.45;9.15;;;7.30;99.90;;;;;;5003810;28;20038;-87
2022/01/18 10:01:36;;;;;;;18.75;8.07;;;7.50;99.90;;;;;;5011175;28;20078;-88
2022/01/18 10:04:37;;;;;;;17.58;8.32;;;7.40;99.90;;;;;;5017177;28;20058;-87
2022/01/18 10:07:03;;;;;;;23.48;8.00;;;7.60;99.90;;;;;;5023146;28;20128;-80
2022/01/18 10:09:29;;;;;;;22.25;9.00;;;7.40;99.90;;;;;;5018657;28;20060;-87
2022/01/18 10:12:13;;;;;;;15.23;6.70;;;7.60;99.90;;;;;;5019067;28;20036;-88
2022/01/18 10:14:53;;;;;;;16.83;7.20;;;7.60;99.90;;;;;;5002155;28;20023;-87
2022/01/18 10:17:39;;;;;;;19.15;6.78;;;7.60;99.90;;;;;;5019886;28;20060;-86
2022/01/18 10:20:18;;;;;;;15.80;7.28;;;7.60;99.90;;;;;;5017949;28;20030;-86
2022/01/18 10:22:49;;;;;;;15.20;7.45;;;7.60;99.90;;;;;;5020590;28;20038;-84
2022/01/18 10:25:20;;;;;;;;;;;7.60;99.90;;;;;;5018007;28;20037;-83
2022/01/18 10:27:47;;;;;;;;;;;7.60;99.90;;;;;;5016550;28;19916;-87
2022/01/18 10:30:21;;;;;;;13.75;7.30;;;7.70;99.90;;;;;;5020910;28;20000;-85
2022/01/18 10:33:11;;;;;;;21.75;7.78;;;7.70;99.90;;;;;;5017999;28;20026;-86
2022/01/18 10:36:10;;;;;;;21.67;7.85;;;7.70;99.90;;;;;;5012754;28;20038;-86
2022/01/18 10:38:44;;;;;;;16.65;7.50;;;7.70;99.90;;;;;;5022050;28;20109;-87
2022/01/18 10:41:30;;;;;;;17.60;7.53;;;7.70;99.90;;;;;;5017672;28;20022;-85
2022/01/18 10:44:10;;;;;;;17.58;7.45;;;8.00;99.90;;;;;;5018946;28;20030;-83
2022/01/18 10:46:49;;;;;;;18.08;9.07;;;7.80;99.90;;;;;;5022203;28;20038;-88
2022/01/18 10:49:30;;;;;;;16.02;7.45;;;7.90;99.90;;;;;;5036609;28;20056;-86
2022/01/18 10:51:57;;;;;;;;;;;7.90;99.90;;;;;;5019448;28;20036;-85
2022/01/18 10:54:38;;;;;;;19.02;7.82;;;7.90;99.90;;;;;;5017896;28;19913;-86
2022/01/18 10:57:06;;;;;;;19.50;7.60;;;7.80;99.90;;;;;;5015841;28;20033;-82
2022/01/18 10:59:33;;;;;;;20.05;9.02;;;7.80;99.90;;;;;;5038532;28;20510;-83
2022/01/18 11:02:17;;;;;;;14.90;7.30;;;7.70;99.90;;;;;;5017160;28;20613;-85
2022/01/18 11:04:53;;;;;;;18.65;7.25;;;7.70;99.90;;;;;;5013799;28;20060;-87
2022/01/18 11:07:24;;;;;;;16.85;6.63;;;7.60;99.90;;;;;;5019894;28;20034;-84
2022/01/18 11:09:50;;;;;;;15.05;7.38;;;8.00;99.90;;;;;;5014517;28;20018;-87
2022/01/18 11:12:20;;;;;;;18.25;6.90;;;7.70;99.90;;;;;;5008220;28;20018;-85
2022/01/18 11:14:51;;;;;;;18.65;6.57;;;7.80;99.90;;;;;;5020105;28;20482;-87
2022/01/18 11:17:25;;;;;;;16.33;6.07;;;7.90;99.90;;;;;;5017861;28;20029;-86
2022/01/18 11:19:54;;;;;;;13.38;5.78;;;7.90;99.90;;;;;;5019434;28;20510;-85
2022/01/18 11:22:24;;;;;;;16.45;6.05;;;7.80;99.90;;;;;;5007040;28;20034;-83
2022/01/18 11:24:51;;;;;;;16.25;5.80;;;;;;;;;;5019419;28;20030;-83
2022/01/18 11:27:18;;;;;;;14.45;6.63;;;7.90;99.90;;;;;;5023367;28;20117;-87
2022/01/18 11:29:49;;;;;;;13.65;6.22;;;7.90;99.90;;;;;;5016056;28;20049;-85
2022/01/18 11:32:17;;;;;;;16.13;6.22;;;8.00;99.90;;;;;;5015731;28;20394;-82
2022/01/18 11:34:42;;;;;;;17.52;5.80;;;8.20;99.90;;;;;;5014680;28;20109;-81
2022/01/18 11:37:42;;;;;;;15.23;5.88;;;8.20;99.90;;;;;;5018006;28;20049;-83
2022/01/18 11:40:11;;;;;;;13.48;5.32;;;7.90;99.90;;;;;;5009113;28;20073;-87
2022/01/18 11:42:50;;;;;;;13.02;5.78;;;8.00;99.90;;;;;;5017705;28;20093;-80
2022/01/18 11:45:25;;;;;;;14.48;5.85;;;8.00;99.90;;;;;;5018466;28;20061;-83
2022/01/18 11:48:20;;;;;;;12.15;5.75;;;8.20;99.90;;;;;;5012908;28;20125;-85
2022/01/18 11:50:50;;;;;;;13.85;6.03;;;8.20;99.90;;;;;;5010248;28;20034;-87
2022/01/18 11:53:44;;;;;;;16.90;5.47;;;8.20;99.90;;;;;;5018604;28;20049;-85
2022/01/18 11:56:31;;;;;;;16.05;6.28;;;8.20;99.90;;;;;;5014986;28;20074;-85
2022/01/18 11:59:19;;;;;;;17.00;6.63;;;8.20;99.90;;;;;;5015643;28;20116;-84
2022/01/18 12:01:53;;;;;;;9.48;5.18;;;8.20;99.90;;;;;;5025283;28;20030;-89
2022/01/18 12:04:42;;;;;;;13.32;4.97;;;8.30;99.90;;;;;;5021010;28;20022;-85
2022/01/18 12:07:09;;;;;;;9.52;4.60;;;8.30;99.90;;;;;;5037887;28;20517;-84
2022/01/18 12:09:40;;;;;;;15.07;4.82;;;8.60;99.90;;;;;;5003644;28;20022;-83
2022/01/18 12:12:46;;;;;;;9.00;4.50;;;8.20;99.90;;;;;;5016169;28;20033;-86
2022/01/18 12:15:24;;;;;;;7.57;3.80;;;8.20;99.90;;;;;;5014762;28;20023;-84
2022/01/18 12:17:51;;;;;;;10.48;4.05;;;8.20;99.90;;;;;;5015537;28;20030;-86
2022/01/18 12:20:35;;;;;;;7.60;2.97;;;8.10;99.90;;;;;;5018534;28;20087;-85
2022/01/18 12:23:06;;;;;;;7.47;2.92;;;7.90;99.90;;;;;;5037102;28;20026;-84
2022/01/18 12:25:35;;;;;;;8.35;3.33;;;7.80;99.90;;;;;;5023969;28;20021;-87
2022/01/18 12:29:07;;;;;;;6.57;3.55;;;7.80;99.90;;;;;;5025184;28;20025;-85
2022/01/18 12:34:28;;;;;;;5.07;2.70;;;8.00;99.90;;;;;;5028066;28;19913;-84
2022/01/18 12:40:25;;;;;;;10.63;3.65;;;8.00;99.90;;;;;;5010698;28;20026;-86
2022/01/18 12:45:37;;;;;;;5.25;2.33;;;8.10;99.90;;;;;;5021761;28;20033;-86
2022/01/18 12:48:04;;;;;;;7.85;2.50;;;8.10;99.90;;;;;;5021948;28;20026;-86
2022/01/18 12:50:36;;;;;;;6.07;2.15;;;8.10;99.90;;;;;;5023915;28;20382;-88
2022/01/18 12:53:07;;;;;;;5.63;2.00;;;8.10;99.90;;;;;;5011158;28;20029;-85
2022/01/18 12:55:38;;;;;;;6.63;2.15;;;10.30;99.90;;;;;;5021697;28;20029;-84
2022/01/18 12:58:10;;;;;;;10.40;2.70;;;8.20;99.90;;;;;;5019157;28;20026;-87
2022/01/18 13:00:37;;;;;;;7.78;2.00;;;8.20;99.90;;;;;;5022461;28;20026;-82
2022/01/18 13:03:03;;;;;;;3.13;1.77;;;8.20;99.90;;;;;;5022424;28;20026;-82
2022/01/18 13:05:34;;;;;;;9.05;1.98;;;8.10;99.90;;;;;;5024342;28;20212;-88
2022/01/18 13:08:00;;;;;;;8.10;1.88;;;8.10;99.90;;;;;;5024075;28;20030;-89
2022/01/18 13:10:48;;;;;;;4.07;1.45;;;9.90;99.90;;;;;;5023907;28;20037;-88
2022/01/18 13:13:16;;;;;;;3.15;1.48;;;8.30;99.90;;;;;;5022640;28;20022;-89
2022/01/18 13:27:01;;;;;;;2.15;1.10;;;8.10;99.90;;;;;;5020676;28;20501;-86
2022/01/18 13:29:28;;;;;;;3.42;1.50;;;9.40;99.90;;;;;;5039346;28;20030;-90
2022/01/18 13:32:12;;;;;;;3.78;1.55;;;10.60;99.90;;;;;;5023300;28;20088;-86
2022/01/18 13:34:41;;;;;;;5.68;1.50;;;7.70;99.90;;;;;;5012369;28;20036;-86
2022/01/18 13:37:11;;;;;;;3.88;1.55;;;7.70;99.90;;;;;;5017132;28;20113;-86
2022/01/18 13:39:44;;;;;;;4.25;1.67;;;7.70;99.90;;;;;;5019075;28;20169;-88
2022/01/18 13:42:12;;;;;;;9.85;1.67;;;10.00;99.90;;;;;;5018697;28;20030;-89
2022/01/18 13:44:38;;;;;;;2.60;1.38;;;7.70;99.90;;;;;;5023302;28;20259;-90
2022/01/18 13:47:19;;;;;;;5.15;1.70;;;7.60;99.90;;;;;;5024323;28;20061;-86
2022/01/18 13:49:45;;;;;;;5.10;1.60;;;7.60;99.90;;;;;;5031363;28;20021;-89
2022/01/18 13:52:13;;;;;;;3.65;1.38;;;7.70;99.90;;;;;;5032893;28;20062;-90
2022/01/18 13:54:45;;;;;;;3.85;1.60;;;10.20;99.90;;;;;;5031153;28;20339;-87
2022/01/18 13:57:11;;;;;;;7.95;2.25;;;9.20;99.90;;;;;;5029496;28;20022;-88
2022/01/18 13:59:36;;;;;;;2.92;1.40;;;7.60;99.90;;;;;;5029583;28;20077;-87
2022/01/18 14:02:14;;;;;;;2.92;1.30;;;7.60;99.90;;;;;;5030205;28;20098;-88
2022/01/18 14:04:41;;;;;;;4.13;1.60;;;7.60;99.90;;;;;;5029827;28;20025;-88
2022/01/18 14:07:07;;;;;;;2.15;1.27;;;7.50;99.90;;;;;;5033625;28;20030;-88
2022/01/18 14:09:32;;;;;;;5.53;1.98;;;7.70;99.90;;;;;;5053225;28;20052;-88
2022/01/18 14:11:58;;;;;;;3.60;1.20;;;;;;;;;;5036615;28;20018;-88
2022/01/18 14:14:29;;;;;;;2.63;1.40;;;7.70;99.90;;;;;;5036913;28;20026;-90
2022/01/18 14:16:55;;;;;;;;;;;10.20;99.90;;;;;;5037309;28;20018;-89
2022/01/18 14:19:30;;;;;;;3.35;1.48;;;8.80;99.90;;;;;;5037120;28;19968;-89
2022/01/18 14:22:02;;;;;;;2.65;1.30;;;7.90;99.90;;;;;;5035601;28;20026;-86
2022/01/18 14:24:41;;;;;;;1.95;1.27;;;8.60;99.90;;;;;;5036027;28;20097;-87
2022/01/18 14:27:15;;;;;;;3.03;1.35;;;7.60;99.90;;;;;;5034304;28;20026;-90
2022/01/18 14:29:40;;;;;;;2.67;1.25;;;8.80;99.90;;;;;;5024757;28;20021;-87
2022/01/18 14:32:09;;;;;;;3.97;1.70;;;7.50;99.90;;;;;;5042665;28;20014;-87
2022/01/18 14:34:47;;;;;;;3.97;1.25;;;8.30;99.90;;;;;;5020583;28;20014;-88
2022/01/18 14:37:14;;;;;;;3.58;1.92;;;7.60;99.90;;;;;;5033480;28;20034;-86
2022/01/18 14:39:52;;;;;;;2.80;1.20;;;8.60;99.90;;;;;;5034108;28;20057;-87